sensor_id;sensor_type;location;lat;lon;timestamp;P1;durP1;ratioP1;P2;durP2;ratioP2
77507;SDS011;66618;42.666;23.360;2023-02-28T00:00:23;22.77;;;10.77;;
77507;SDS011;66618;42.666;23.360;2023-02-28T00:02:48;25.15;;;11.10;;
77507;SDS011;66618;42.666;23.360;2023-02-28T00:05:15;22.10;;;10.05;;
77507;SDS011;66618;42.666;23.360;2023-02-28T00:07:42;21.23;;;10.32;;
77507;SDS011;66618;42.666;23.360;2023-02-28T00:10:09;32.35;;;12.82;;
77507;SDS011;66618;42.666;23.360;2023-02-28T00:12:36;22.88;;;11.05;;
77507;SDS011;66618;42.666;23.360;2023-02-28T00:15:05;25.27;;;10.18;;
77507;SDS011;66618;42.666;23.360;2023-02-28T00:17:31;29.42;;;11.60;;
77507;SDS011;66618;42.666;23.360;2023-02-28T00:19:56;25.42;;;11.68;;
77507;SDS011;66618;42.666;23.360;2023-02-28T00:22:26;27.70;;;12.27;;
77507;SDS011;66618;42.666;23.360;2023-02-28T00:24:52;28.45;;;12.00;;
77507;SDS011;66618;42.666;23.360;2023-02-28T00:27:17;24.10;;;11.45;;
77507;SDS011;66618;42.666;23.360;2023-02-28T00:29:43;25.55;;;13.02;;
77507;SDS011;66618;42.666;23.360;2023-02-28T00:32:08;27.30;;;12.60;;
77507;SDS011;66618;42.666;23.360;2023-02-28T00:34:33;27.77;;;11.88;;
77507;SDS011;66618;42.666;23.360;2023-02-28T00:37:03;36.08;;;14.50;;
77507;SDS011;66618;42.666;23.360;2023-02-28T00:39:29;26.08;;;11.02;;
77507;SDS011;66618;42.666;23.360;2023-02-28T00:41:55;25.08;;;11.18;;
77507;SDS011;66618;42.666;23.360;2023-02-28T00:44:20;30.13;;;13.25;;
77507;SDS011;66618;42.666;23.360;2023-02-28T00:46:46;29.83;;;13.55;;
77507;SDS011;66618;42.666;23.360;2023-02-28T00:49:11;26.30;;;11.70;;
77507;SDS011;66618;42.666;23.360;2023-02-28T00:51:37;24.95;;;10.77;;
77507;SDS011;66618;42.666;23.360;2023-02-28T00:54:02;26.65;;;10.95;;
77507;SDS011;66618;42.666;23.360;2023-02-28T00:56:28;24.88;;;10.45;;
77507;SDS011;66618;42.666;23.360;2023-02-28T00:58:53;30.83;;;12.63;;
77507;SDS011;66618;42.666;23.360;2023-02-28T01:01:19;26.85;;;11.65;;
77507;SDS011;66618;42.666;23.360;2023-02-28T01:03:44;22.08;;;11.38;;
77507;SDS011;66618;42.666;23.360;2023-02-28T01:06:09;28.92;;;13.73;;
77507;SDS011;66618;42.666;23.360;2023-02-28T01:08:35;31.67;;;13.70;;
77507;SDS011;66618;42.666;23.360;2023-02-28T01:11:06;30.77;;;14.07;;
77507;SDS011;66618;42.666;23.360;2023-02-28T01:13:33;31.88;;;14.32;;
77507;SDS011;66618;42.666;23.360;2023-02-28T01:15:58;28.95;;;12.73;;
77507;SDS011;66618;42.666;23.360;2023-02-28T01:18:24;33.17;;;14.57;;
77507;SDS011;66618;42.666;23.360;2023-02-28T01:20:49;29.50;;;13.05;;
77507;SDS011;66618;42.666;23.360;2023-02-28T01:23:17;30.00;;;14.00;;
77507;SDS011;66618;42.666;23.360;2023-02-28T01:25:44;29.70;;;12.90;;
77507;SDS011;66618;42.666;23.360;2023-02-28T01:28:09;28.08;;;13.00;;
77507;SDS011;66618;42.666;23.360;2023-02-28T01:30:35;31.90;;;13.40;;
77507;SDS011;66618;42.666;23.360;2023-02-28T01:33:00;31.23;;;14.13;;
77507;SDS011;66618;42.666;23.360;2023-02-28T01:35:26;33.58;;;13.73;;
77507;SDS011;66618;42.666;23.360;2023-02-28T01:37:51;29.98;;;13.73;;
77507;SDS011;66618;42.666;23.360;2023-02-28T01:40:16;34.42;;;13.45;;
77507;SDS011;66618;42.666;23.360;2023-02-28T01:42:42;33.33;;;13.40;;
77507;SDS011;66618;42.666;23.360;2023-02-28T01:45:16;30.48;;;13.38;;
77507;SDS011;66618;42.666;23.360;2023-02-28T01:47:45;26.60;;;12.05;;
77507;SDS011;66618;42.666;23.360;2023-02-28T01:50:16;27.00;;;11.70;;
77507;SDS011;66618;42.666;23.360;2023-02-28T01:52:45;22.65;;;11.32;;
77507;SDS011;66618;42.666;23.360;2023-02-28T01:55:11;26.98;;;11.60;;
77507;SDS011;66618;42.666;23.360;2023-02-28T01:57:42;25.63;;;11.68;;
77507;SDS011;66618;42.666;23.360;2023-02-28T02:00:14;25.52;;;12.13;;
77507;SDS011;66618;42.666;23.360;2023-02-28T02:02:41;26.20;;;11.65;;
77507;SDS011;66618;42.666;23.360;2023-02-28T02:05:10;33.17;;;13.73;;
77507;SDS011;66618;42.666;23.360;2023-02-28T02:07:38;28.83;;;13.00;;
77507;SDS011;66618;42.666;23.360;2023-02-28T02:10:21;27.52;;;12.82;;
77507;SDS011;66618;42.666;23.360;2023-02-28T02:18:08;28.13;;;13.23;;
77507;SDS011;66618;42.666;23.360;2023-02-28T02:32:56;30.77;;;13.00;;
77507;SDS011;66618;42.666;23.360;2023-02-28T02:35:27;32.53;;;13.55;;
77507;SDS011;66618;42.666;23.360;2023-02-28T02:40:57;33.17;;;13.98;;
77507;SDS011;66618;42.666;23.360;2023-02-28T02:43:31;31.65;;;12.43;;
77507;SDS011;66618;42.666;23.360;2023-02-28T02:46:29;35.17;;;13.82;;
77507;SDS011;66618;42.666;23.360;2023-02-28T02:48:54;31.05;;;12.73;;
77507;SDS011;66618;42.666;23.360;2023-02-28T02:51:21;35.33;;;16.00;;
77507;SDS011;66618;42.666;23.360;2023-02-28T02:53:49;32.83;;;13.88;;
77507;SDS011;66618;42.666;23.360;2023-02-28T02:56:21;32.17;;;13.90;;
77507;SDS011;66618;42.666;23.360;2023-02-28T02:58:49;34.83;;;14.75;;
77507;SDS011;66618;42.666;23.360;2023-02-28T03:01:18;34.58;;;13.48;;
77507;SDS011;66618;42.666;23.360;2023-02-28T03:03:52;32.78;;;13.95;;
77507;SDS011;66618;42.666;23.360;2023-02-28T03:06:25;29.40;;;12.95;;
77507;SDS011;66618;42.666;23.360;2023-02-28T03:08:51;32.50;;;14.73;;
77507;SDS011;66618;42.666;23.360;2023-02-28T03:11:16;30.40;;;13.93;;
77507;SDS011;66618;42.666;23.360;2023-02-28T03:13:44;36.20;;;14.68;;
77507;SDS011;66618;42.666;23.360;2023-02-28T03:21:45;40.30;;;17.70;;
77507;SDS011;66618;42.666;23.360;2023-02-28T03:24:18;43.00;;;18.30;;
77507;SDS011;66618;42.666;23.360;2023-02-28T03:26:50;39.58;;;15.43;;
77507;SDS011;66618;42.666;23.360;2023-02-28T03:29:33;40.10;;;15.80;;
77507;SDS011;66618;42.666;23.360;2023-02-28T03:32:21;44.45;;;18.00;;
77507;SDS011;66618;42.666;23.360;2023-02-28T03:34:56;45.92;;;18.45;;
77507;SDS011;66618;42.666;23.360;2023-02-28T03:37:25;49.38;;;20.17;;
77507;SDS011;66618;42.666;23.360;2023-02-28T03:40:03;49.08;;;20.80;;
77507;SDS011;66618;42.666;23.360;2023-02-28T03:42:33;56.83;;;21.85;;
77507;SDS011;66618;42.666;23.360;2023-02-28T03:45:05;61.00;;;22.42;;
77507;SDS011;66618;42.666;23.360;2023-02-28T03:47:52;64.93;;;22.20;;
77507;SDS011;66618;42.666;23.360;2023-02-28T03:50:24;51.13;;;19.15;;
77507;SDS011;66618;42.666;23.360;2023-02-28T03:53:15;60.53;;;21.33;;
77507;SDS011;66618;42.666;23.360;2023-02-28T04:01:43;82.57;;;23.83;;
77507;SDS011;66618;42.666;23.360;2023-02-28T04:04:10;58.50;;;18.88;;
77507;SDS011;66618;42.666;23.360;2023-02-28T04:06:36;65.43;;;19.73;;
77507;SDS011;66618;42.666;23.360;2023-02-28T04:09:02;79.50;;;24.13;;
77507;SDS011;66618;42.666;23.360;2023-02-28T04:11:35;71.25;;;20.95;;
77507;SDS011;66618;42.666;23.360;2023-02-28T04:14:02;68.63;;;21.08;;
77507;SDS011;66618;42.666;23.360;2023-02-28T04:16:29;72.97;;;21.05;;
77507;SDS011;66618;42.666;23.360;2023-02-28T04:18:55;52.40;;;16.83;;
77507;SDS011;66618;42.666;23.360;2023-02-28T04:21:33;52.47;;;17.52;;
77507;SDS011;66618;42.666;23.360;2023-02-28T04:24:00;60.70;;;17.70;;
77507;SDS011;66618;42.666;23.360;2023-02-28T04:26:29;70.07;;;20.40;;
77507;SDS011;66618;42.666;23.360;2023-02-28T04:28:59;45.92;;;15.90;;
77507;SDS011;66618;42.666;23.360;2023-02-28T04:31:24;56.75;;;19.98;;
77507;SDS011;66618;42.666;23.360;2023-02-28T04:33:50;64.95;;;20.85;;
77507;SDS011;66618;42.666;23.360;2023-02-28T04:36:16;66.10;;;22.10;;
77507;SDS011;66618;42.666;23.360;2023-02-28T04:38:43;65.55;;;22.05;;
77507;SDS011;66618;42.666;23.360;2023-02-28T04:41:10;71.03;;;21.55;;
77507;SDS011;66618;42.666;23.360;2023-02-28T04:43:35;58.05;;;19.73;;
77507;SDS011;66618;42.666;23.360;2023-02-28T04:46:02;54.95;;;18.08;;
77507;SDS011;66618;42.666;23.360;2023-02-28T04:48:29;55.80;;;20.65;;
77507;SDS011;66618;42.666;23.360;2023-02-28T04:51:04;84.72;;;23.20;;
77507;SDS011;66618;42.666;23.360;2023-02-28T04:53:31;83.55;;;23.30;;
77507;SDS011;66618;42.666;23.360;2023-02-28T04:55:57;74.80;;;22.55;;
77507;SDS011;66618;42.666;23.360;2023-02-28T04:58:23;70.15;;;22.23;;
77507;SDS011;66618;42.666;23.360;2023-02-28T05:00:50;73.60;;;23.27;;
77507;SDS011;66618;42.666;23.360;2023-02-28T05:03:16;74.97;;;23.48;;
77507;SDS011;66618;42.666;23.360;2023-02-28T05:05:42;84.22;;;24.15;;
77507;SDS011;66618;42.666;23.360;2023-02-28T05:08:07;67.65;;;19.63;;
77507;SDS011;66618;42.666;23.360;2023-02-28T05:10:32;75.25;;;22.10;;
77507;SDS011;66618;42.666;23.360;2023-02-28T05:12:58;67.28;;;21.52;;
77507;SDS011;66618;42.666;23.360;2023-02-28T05:15:23;79.43;;;23.23;;
77507;SDS011;66618;42.666;23.360;2023-02-28T05:17:49;90.70;;;26.02;;
77507;SDS011;66618;42.666;23.360;2023-02-28T05:20:14;66.13;;;20.92;;
77507;SDS011;66618;42.666;23.360;2023-02-28T05:22:40;68.25;;;21.75;;
77507;SDS011;66618;42.666;23.360;2023-02-28T05:25:06;84.63;;;24.98;;
77507;SDS011;66618;42.666;23.360;2023-02-28T05:27:32;68.85;;;21.17;;
77507;SDS011;66618;42.666;23.360;2023-02-28T05:29:58;72.43;;;21.98;;
77507;SDS011;66618;42.666;23.360;2023-02-28T05:32:24;52.42;;;19.45;;
77507;SDS011;66618;42.666;23.360;2023-02-28T05:34:49;64.88;;;19.48;;
77507;SDS011;66618;42.666;23.360;2023-02-28T05:37:15;61.30;;;19.63;;
77507;SDS011;66618;42.666;23.360;2023-02-28T05:39:41;65.97;;;19.98;;
77507;SDS011;66618;42.666;23.360;2023-02-28T05:42:07;61.60;;;20.73;;
77507;SDS011;66618;42.666;23.360;2023-02-28T05:44:32;61.75;;;21.10;;
77507;SDS011;66618;42.666;23.360;2023-02-28T05:46:58;63.85;;;22.98;;
77507;SDS011;66618;42.666;23.360;2023-02-28T05:49:23;66.13;;;21.48;;
77507;SDS011;66618;42.666;23.360;2023-02-28T05:51:48;71.07;;;21.83;;
77507;SDS011;66618;42.666;23.360;2023-02-28T05:54:14;61.55;;;20.23;;
77507;SDS011;66618;42.666;23.360;2023-02-28T05:56:39;55.15;;;18.40;;
77507;SDS011;66618;42.666;23.360;2023-02-28T05:59:08;60.40;;;19.85;;
77507;SDS011;66618;42.666;23.360;2023-02-28T06:01:38;68.82;;;22.08;;
77507;SDS011;66618;42.666;23.360;2023-02-28T06:04:05;72.40;;;23.42;;
77507;SDS011;66618;42.666;23.360;2023-02-28T06:06:32;74.38;;;24.17;;
77507;SDS011;66618;42.666;23.360;2023-02-28T06:08:59;83.45;;;25.45;;
77507;SDS011;66618;42.666;23.360;2023-02-28T06:11:24;81.88;;;26.00;;
77507;SDS011;66618;42.666;23.360;2023-02-28T06:13:55;93.15;;;28.60;;
77507;SDS011;66618;42.666;23.360;2023-02-28T06:16:21;85.03;;;25.85;;
77507;SDS011;66618;42.666;23.360;2023-02-28T06:18:47;96.93;;;29.30;;
77507;SDS011;66618;42.666;23.360;2023-02-28T06:21:12;75.07;;;25.27;;
77507;SDS011;66618;42.666;23.360;2023-02-28T06:23:38;86.32;;;30.90;;
77507;SDS011;66618;42.666;23.360;2023-02-28T06:26:04;74.03;;;27.20;;
77507;SDS011;66618;42.666;23.360;2023-02-28T06:28:29;72.53;;;25.80;;
77507;SDS011;66618;42.666;23.360;2023-02-28T06:30:55;85.13;;;28.77;;
77507;SDS011;66618;42.666;23.360;2023-02-28T06:33:20;92.10;;;30.05;;
77507;SDS011;66618;42.666;23.360;2023-02-28T06:35:51;84.05;;;29.02;;
77507;SDS011;66618;42.666;23.360;2023-02-28T06:38:17;75.10;;;25.75;;
77507;SDS011;66618;42.666;23.360;2023-02-28T06:40:43;60.78;;;21.25;;
77507;SDS011;66618;42.666;23.360;2023-02-28T06:43:09;82.80;;;26.20;;
77507;SDS011;66618;42.666;23.360;2023-02-28T06:45:36;80.78;;;26.98;;
77507;SDS011;66618;42.666;23.360;2023-02-28T06:48:02;66.65;;;22.33;;
77507;SDS011;66618;42.666;23.360;2023-02-28T06:50:27;73.18;;;26.30;;
77507;SDS011;66618;42.666;23.360;2023-02-28T06:52:54;55.35;;;19.92;;
77507;SDS011;66618;42.666;23.360;2023-02-28T06:55:20;72.65;;;25.63;;
77507;SDS011;66618;42.666;23.360;2023-02-28T06:57:46;49.33;;;18.45;;
77507;SDS011;66618;42.666;23.360;2023-02-28T07:00:11;51.47;;;19.42;;
77507;SDS011;66618;42.666;23.360;2023-02-28T07:02:37;46.67;;;18.67;;
77507;SDS011;66618;42.666;23.360;2023-02-28T07:05:03;47.80;;;19.17;;
77507;SDS011;66618;42.666;23.360;2023-02-28T07:07:29;47.15;;;19.20;;
77507;SDS011;66618;42.666;23.360;2023-02-28T07:09:55;49.00;;;18.88;;
77507;SDS011;66618;42.666;23.360;2023-02-28T07:12:20;54.67;;;21.63;;
77507;SDS011;66618;42.666;23.360;2023-02-28T07:14:46;44.67;;;19.92;;
77507;SDS011;66618;42.666;23.360;2023-02-28T07:17:11;48.95;;;19.27;;
77507;SDS011;66618;42.666;23.360;2023-02-28T07:19:37;50.83;;;22.10;;
77507;SDS011;66618;42.666;23.360;2023-02-28T07:22:03;44.40;;;19.60;;
77507;SDS011;66618;42.666;23.360;2023-02-28T07:24:29;47.25;;;19.80;;
77507;SDS011;66618;42.666;23.360;2023-02-28T07:26:55;50.03;;;20.23;;
77507;SDS011;66618;42.666;23.360;2023-02-28T07:29:20;44.92;;;19.52;;
77507;SDS011;66618;42.666;23.360;2023-02-28T07:31:46;46.72;;;20.35;;
77507;SDS011;66618;42.666;23.360;2023-02-28T07:34:11;44.33;;;18.75;;
77507;SDS011;66618;42.666;23.360;2023-02-28T07:36:37;41.25;;;17.65;;
77507;SDS011;66618;42.666;23.360;2023-02-28T07:39:03;39.78;;;17.92;;
77507;SDS011;66618;42.666;23.360;2023-02-28T07:41:29;37.00;;;17.17;;
77507;SDS011;66618;42.666;23.360;2023-02-28T07:43:58;35.45;;;16.20;;
77507;SDS011;66618;42.666;23.360;2023-02-28T07:46:25;35.22;;;16.92;;
77507;SDS011;66618;42.666;23.360;2023-02-28T07:48:51;39.65;;;17.45;;
77507;SDS011;66618;42.666;23.360;2023-02-28T07:51:18;34.33;;;16.48;;
77507;SDS011;66618;42.666;23.360;2023-02-28T07:53:43;35.95;;;17.13;;
77507;SDS011;66618;42.666;23.360;2023-02-28T07:56:08;33.22;;;15.70;;
77507;SDS011;66618;42.666;23.360;2023-02-28T07:58:36;33.70;;;15.65;;
77507;SDS011;66618;42.666;23.360;2023-02-28T08:01:08;30.02;;;14.48;;
77507;SDS011;66618;42.666;23.360;2023-02-28T08:03:34;34.28;;;16.50;;
77507;SDS011;66618;42.666;23.360;2023-02-28T08:06:01;30.17;;;15.15;;
77507;SDS011;66618;42.666;23.360;2023-02-28T08:08:27;28.52;;;14.45;;
77507;SDS011;66618;42.666;23.360;2023-02-28T08:10:58;32.47;;;15.45;;
77507;SDS011;66618;42.666;23.360;2023-02-28T08:13:25;35.38;;;15.50;;
77507;SDS011;66618;42.666;23.360;2023-02-28T08:15:52;34.55;;;15.30;;
77507;SDS011;66618;42.666;23.360;2023-02-28T08:18:17;36.20;;;16.35;;
77507;SDS011;66618;42.666;23.360;2023-02-28T08:20:43;35.22;;;16.98;;
77507;SDS011;66618;42.666;23.360;2023-02-28T08:23:08;35.60;;;18.65;;
77507;SDS011;66618;42.666;23.360;2023-02-28T08:25:33;36.00;;;18.05;;
77507;SDS011;66618;42.666;23.360;2023-02-28T08:27:59;37.75;;;17.67;;
77507;SDS011;66618;42.666;23.360;2023-02-28T08:30:24;36.08;;;16.88;;
77507;SDS011;66618;42.666;23.360;2023-02-28T08:32:50;37.72;;;17.45;;
77507;SDS011;66618;42.666;23.360;2023-02-28T08:35:15;35.08;;;17.90;;
77507;SDS011;66618;42.666;23.360;2023-02-28T08:37:40;37.47;;;18.52;;
77507;SDS011;66618;42.666;23.360;2023-02-28T08:40:06;38.92;;;17.25;;
77507;SDS011;66618;42.666;23.360;2023-02-28T08:42:32;42.28;;;19.58;;
77507;SDS011;66618;42.666;23.360;2023-02-28T08:44:57;32.78;;;13.88;;
77507;SDS011;66618;42.666;23.360;2023-02-28T08:47:23;34.28;;;16.48;;
77507;SDS011;66618;42.666;23.360;2023-02-28T08:49:48;34.65;;;16.25;;
77507;SDS011;66618;42.666;23.360;2023-02-28T08:52:14;31.45;;;13.32;;
77507;SDS011;66618;42.666;23.360;2023-02-28T08:54:39;33.88;;;14.20;;
77507;SDS011;66618;42.666;23.360;2023-02-28T08:57:04;35.88;;;16.67;;
77507;SDS011;66618;42.666;23.360;2023-02-28T08:59:30;28.45;;;11.85;;
77507;SDS011;66618;42.666;23.360;2023-02-28T09:01:55;34.25;;;16.25;;
77507;SDS011;66618;42.666;23.360;2023-02-28T09:04:21;27.50;;;12.60;;
77507;SDS011;66618;42.666;23.360;2023-02-28T09:06:47;25.80;;;12.98;;
77507;SDS011;66618;42.666;23.360;2023-02-28T09:09:13;26.05;;;13.85;;
77507;SDS011;66618;42.666;23.360;2023-02-28T09:11:39;30.60;;;14.23;;
77507;SDS011;66618;42.666;23.360;2023-02-28T09:14:04;29.85;;;12.00;;
77507;SDS011;66618;42.666;23.360;2023-02-28T09:16:30;25.95;;;11.70;;
77507;SDS011;66618;42.666;23.360;2023-02-28T09:18:56;23.48;;;11.95;;
77507;SDS011;66618;42.666;23.360;2023-02-28T09:21:22;29.55;;;14.57;;
77507;SDS011;66618;42.666;23.360;2023-02-28T09:23:48;30.48;;;13.15;;
77507;SDS011;66618;42.666;23.360;2023-02-28T09:26:32;32.03;;;17.35;;
77507;SDS011;66618;42.666;23.360;2023-02-28T09:28:59;28.35;;;12.48;;
77507;SDS011;66618;42.666;23.360;2023-02-28T09:31:25;26.10;;;12.75;;
77507;SDS011;66618;42.666;23.360;2023-02-28T09:33:54;28.55;;;13.32;;
77507;SDS011;66618;42.666;23.360;2023-02-28T09:36:20;33.20;;;16.45;;
77507;SDS011;66618;42.666;23.360;2023-02-28T09:38:46;29.75;;;11.43;;
77507;SDS011;66618;42.666;23.360;2023-02-28T09:41:16;19.75;;;8.82;;
77507;SDS011;66618;42.666;23.360;2023-02-28T09:43:44;30.58;;;16.65;;
77507;SDS011;66618;42.666;23.360;2023-02-28T09:49:13;28.60;;;13.27;;
77507;SDS011;66618;42.666;23.360;2023-02-28T09:54:21;24.98;;;11.88;;
77507;SDS011;66618;42.666;23.360;2023-02-28T09:56:50;21.70;;;11.38;;
77507;SDS011;66618;42.666;23.360;2023-02-28T10:02:03;24.58;;;10.63;;
77507;SDS011;66618;42.666;23.360;2023-02-28T10:04:50;21.80;;;10.70;;
77507;SDS011;66618;42.666;23.360;2023-02-28T10:07:23;24.75;;;12.25;;
77507;SDS011;66618;42.666;23.360;2023-02-28T10:09:59;25.48;;;10.27;;
77507;SDS011;66618;42.666;23.360;2023-02-28T10:12:27;22.88;;;9.27;;
77507;SDS011;66618;42.666;23.360;2023-02-28T10:14:54;22.52;;;11.38;;
77507;SDS011;66618;42.666;23.360;2023-02-28T10:17:22;19.77;;;9.38;;
77507;SDS011;66618;42.666;23.360;2023-02-28T10:22:29;22.63;;;11.73;;
77507;SDS011;66618;42.666;23.360;2023-02-28T10:25:16;19.65;;;9.35;;
77507;SDS011;66618;42.666;23.360;2023-02-28T10:27:44;21.67;;;10.60;;
77507;SDS011;66618;42.666;23.360;2023-02-28T10:30:10;20.50;;;9.10;;
77507;SDS011;66618;42.666;23.360;2023-02-28T10:32:38;20.95;;;10.27;;
77507;SDS011;66618;42.666;23.360;2023-02-28T10:35:18;19.20;;;8.52;;
77507;SDS011;66618;42.666;23.360;2023-02-28T10:37:46;22.05;;;11.95;;
77507;SDS011;66618;42.666;23.360;2023-02-28T10:42:55;21.42;;;8.30;;
77507;SDS011;66618;42.666;23.360;2023-02-28T10:45:21;17.60;;;7.45;;
77507;SDS011;66618;42.666;23.360;2023-02-28T10:47:52;19.50;;;8.98;;
77507;SDS011;66618;42.666;23.360;2023-02-28T10:50:32;21.27;;;10.87;;
77507;SDS011;66618;42.666;23.360;2023-02-28T10:53:05;19.65;;;10.30;;
77507;SDS011;66618;42.666;23.360;2023-02-28T10:55:35;20.15;;;11.00;;
77507;SDS011;66618;42.666;23.360;2023-02-28T10:58:01;19.33;;;9.65;;
77507;SDS011;66618;42.666;23.360;2023-02-28T11:00:31;19.08;;;9.23;;
77507;SDS011;66618;42.666;23.360;2023-02-28T11:02:58;20.90;;;9.48;;
77507;SDS011;66618;42.666;23.360;2023-02-28T11:05:25;25.20;;;13.73;;
77507;SDS011;66618;42.666;23.360;2023-02-28T11:08:18;20.55;;;10.80;;
77507;SDS011;66618;42.666;23.360;2023-02-28T11:10:54;19.25;;;9.77;;
77507;SDS011;66618;42.666;23.360;2023-02-28T11:13:21;21.27;;;10.23;;
77507;SDS011;66618;42.666;23.360;2023-02-28T11:15:58;19.45;;;11.50;;
77507;SDS011;66618;42.666;23.360;2023-02-28T11:18:30;26.25;;;12.38;;
77507;SDS011;66618;42.666;23.360;2023-02-28T11:20:59;19.85;;;9.02;;
77507;SDS011;66618;42.666;23.360;2023-02-28T11:23:26;22.15;;;12.23;;
77507;SDS011;66618;42.666;23.360;2023-02-28T11:25:55;23.02;;;9.95;;
77507;SDS011;66618;42.666;23.360;2023-02-28T11:28:25;21.30;;;8.77;;
77507;SDS011;66618;42.666;23.360;2023-02-28T11:30:59;16.92;;;7.40;;
77507;SDS011;66618;42.666;23.360;2023-02-28T11:33:29;18.17;;;8.82;;
77507;SDS011;66618;42.666;23.360;2023-02-28T11:36:01;27.00;;;10.98;;
77507;SDS011;66618;42.666;23.360;2023-02-28T11:38:33;19.30;;;8.50;;
77507;SDS011;66618;42.666;23.360;2023-02-28T11:41:47;22.77;;;8.02;;
77507;SDS011;66618;42.666;23.360;2023-02-28T11:46:53;24.63;;;11.35;;
77507;SDS011;66618;42.666;23.360;2023-02-28T11:51:54;22.83;;;12.85;;
77507;SDS011;66618;42.666;23.360;2023-02-28T12:02:28;23.98;;;12.57;;
77507;SDS011;66618;42.666;23.360;2023-02-28T12:05:10;26.40;;;13.98;;
77507;SDS011;66618;42.666;23.360;2023-02-28T12:10:30;18.17;;;9.95;;
77507;SDS011;66618;42.666;23.360;2023-02-28T12:13:26;21.98;;;11.57;;
77507;SDS011;66618;42.666;23.360;2023-02-28T12:18:46;22.13;;;10.05;;
77507;SDS011;66618;42.666;23.360;2023-02-28T12:23:58;15.85;;;8.00;;
77507;SDS011;66618;42.666;23.360;2023-02-28T12:26:36;14.93;;;8.20;;
77507;SDS011;66618;42.666;23.360;2023-02-28T12:29:09;18.35;;;8.40;;
77507;SDS011;66618;42.666;23.360;2023-02-28T12:32:18;21.85;;;8.70;;
77507;SDS011;66618;42.666;23.360;2023-02-28T12:35:04;18.98;;;9.40;;
77507;SDS011;66618;42.666;23.360;2023-02-28T12:37:34;19.95;;;9.23;;
77507;SDS011;66618;42.666;23.360;2023-02-28T12:40:09;17.90;;;9.57;;
77507;SDS011;66618;42.666;23.360;2023-02-28T12:42:47;17.38;;;8.20;;
77507;SDS011;66618;42.666;23.360;2023-02-28T12:45:18;19.38;;;10.52;;
77507;SDS011;66618;42.666;23.360;2023-02-28T12:47:46;24.38;;;9.18;;
77507;SDS011;66618;42.666;23.360;2023-02-28T12:50:15;19.42;;;9.27;;
77507;SDS011;66618;42.666;23.360;2023-02-28T13:01:02;17.17;;;7.38;;
77507;SDS011;66618;42.666;23.360;2023-02-28T13:09:25;14.98;;;7.10;;
77507;SDS011;66618;42.666;23.360;2023-02-28T13:11:51;16.95;;;9.32;;
77507;SDS011;66618;42.666;23.360;2023-02-28T13:19:20;19.67;;;9.10;;
77507;SDS011;66618;42.666;23.360;2023-02-28T13:21:48;18.98;;;9.05;;
77507;SDS011;66618;42.666;23.360;2023-02-28T13:24:36;23.25;;;10.52;;
77507;SDS011;66618;42.666;23.360;2023-02-28T13:29:28;17.15;;;8.65;;
77507;SDS011;66618;42.666;23.360;2023-02-28T13:39:47;22.00;;;11.43;;
77507;SDS011;66618;42.666;23.360;2023-02-28T13:55:26;15.20;;;6.60;;
77507;SDS011;66618;42.666;23.360;2023-02-28T14:01:22;16.08;;;7.15;;
77507;SDS011;66618;42.666;23.360;2023-02-28T14:04:01;14.52;;;6.35;;
77507;SDS011;66618;42.666;23.360;2023-02-28T14:06:51;18.15;;;7.90;;
77507;SDS011;66618;42.666;23.360;2023-02-28T14:09:29;18.08;;;8.38;;
77507;SDS011;66618;42.666;23.360;2023-02-28T14:11:57;18.08;;;8.40;;
77507;SDS011;66618;42.666;23.360;2023-02-28T14:17:01;17.70;;;8.98;;
77507;SDS011;66618;42.666;23.360;2023-02-28T14:19:29;18.88;;;7.13;;
77507;SDS011;66618;42.666;23.360;2023-02-28T14:25:04;16.25;;;7.68;;
77507;SDS011;66618;42.666;23.360;2023-02-28T14:27:53;18.00;;;8.57;;
77507;SDS011;66618;42.666;23.360;2023-02-28T14:33:25;20.73;;;8.82;;
77507;SDS011;66618;42.666;23.360;2023-02-28T14:36:08;19.77;;;7.20;;
77507;SDS011;66618;42.666;23.360;2023-02-28T14:38:42;24.67;;;9.98;;
77507;SDS011;66618;42.666;23.360;2023-02-28T14:41:20;18.90;;;10.13;;
77507;SDS011;66618;42.666;23.360;2023-02-28T14:43:53;17.13;;;6.93;;
77507;SDS011;66618;42.666;23.360;2023-02-28T14:46:20;18.63;;;8.38;;
77507;SDS011;66618;42.666;23.360;2023-02-28T14:48:48;20.52;;;9.90;;
77507;SDS011;66618;42.666;23.360;2023-02-28T14:51:18;21.38;;;9.05;;
77507;SDS011;66618;42.666;23.360;2023-02-28T14:53:47;20.23;;;8.68;;
77507;SDS011;66618;42.666;23.360;2023-02-28T14:56:23;20.25;;;7.82;;
77507;SDS011;66618;42.666;23.360;2023-02-28T14:58:54;17.88;;;7.18;;
77507;SDS011;66618;42.666;23.360;2023-02-28T15:01:21;17.50;;;6.25;;
77507;SDS011;66618;42.666;23.360;2023-02-28T15:03:48;13.15;;;6.53;;
77507;SDS011;66618;42.666;23.360;2023-02-28T15:06:15;13.38;;;6.68;;
77507;SDS011;66618;42.666;23.360;2023-02-28T15:08:42;17.65;;;8.55;;
77507;SDS011;66618;42.666;23.360;2023-02-28T15:11:08;19.95;;;9.55;;
77507;SDS011;66618;42.666;23.360;2023-02-28T15:13:44;20.85;;;7.82;;
77507;SDS011;66618;42.666;23.360;2023-02-28T15:16:12;20.58;;;8.15;;
77507;SDS011;66618;42.666;23.360;2023-02-28T15:18:44;17.45;;;7.07;;
77507;SDS011;66618;42.666;23.360;2023-02-28T15:21:24;14.13;;;6.70;;
77507;SDS011;66618;42.666;23.360;2023-02-28T15:23:56;15.07;;;6.38;;
77507;SDS011;66618;42.666;23.360;2023-02-28T15:26:29;15.13;;;7.80;;
77507;SDS011;66618;42.666;23.360;2023-02-28T15:28:58;14.20;;;6.72;;
77507;SDS011;66618;42.666;23.360;2023-02-28T15:31:26;10.07;;;5.60;;
77507;SDS011;66618;42.666;23.360;2023-02-28T15:33:54;15.05;;;7.28;;
77507;SDS011;66618;42.666;23.360;2023-02-28T15:36:21;17.80;;;6.80;;
77507;SDS011;66618;42.666;23.360;2023-02-28T15:38:50;26.55;;;8.52;;
77507;SDS011;66618;42.666;23.360;2023-02-28T15:41:30;13.98;;;6.63;;
77507;SDS011;66618;42.666;23.360;2023-02-28T15:46:58;21.25;;;9.55;;
77507;SDS011;66618;42.666;23.360;2023-02-28T15:49:24;15.73;;;7.13;;
77507;SDS011;66618;42.666;23.360;2023-02-28T15:51:50;88.30;;;32.45;;
77507;SDS011;66618;42.666;23.360;2023-02-28T15:54:19;17.90;;;8.65;;
77507;SDS011;66618;42.666;23.360;2023-02-28T15:56:51;20.95;;;9.98;;
77507;SDS011;66618;42.666;23.360;2023-02-28T15:59:21;16.05;;;6.78;;
77507;SDS011;66618;42.666;23.360;2023-02-28T16:02:02;13.75;;;7.00;;
77507;SDS011;66618;42.666;23.360;2023-02-28T16:07:34;12.02;;;7.43;;
77507;SDS011;66618;42.666;23.360;2023-02-28T16:10:00;12.30;;;6.80;;
77507;SDS011;66618;42.666;23.360;2023-02-28T16:12:27;17.13;;;8.45;;
77507;SDS011;66618;42.666;23.360;2023-02-28T16:14:55;14.35;;;8.98;;
77507;SDS011;66618;42.666;23.360;2023-02-28T16:17:24;14.23;;;7.93;;
77507;SDS011;66618;42.666;23.360;2023-02-28T16:19:50;12.63;;;4.95;;
77507;SDS011;66618;42.666;23.360;2023-02-28T16:22:16;14.82;;;6.65;;
77507;SDS011;66618;42.666;23.360;2023-02-28T16:24:41;13.13;;;8.02;;
77507;SDS011;66618;42.666;23.360;2023-02-28T16:27:07;15.38;;;7.22;;
77507;SDS011;66618;42.666;23.360;2023-02-28T16:29:41;12.20;;;5.30;;